New Richland, Minnesota
Current Conditions -  °F | °C
As of 8:14 PM on Monday 24 Nov 2014 (Local Time) from KACQ Reporting Station
Overcast Overcast  
Wind Chill: -3°   Ceiling: 2100
Heat Index: 14°   Visibility: 10mi
Dew Point:   Wind: 18mph
Humidity: 79%   Direction: 310°NW
Pressure: 29.84"   Gusts: 25mph
Location:  43.89°N, 93.49°W
Report Text: KACQ 250214Z AUTO 31016G22KT 10SM BKN021 OVC085 M10/M13 A2984 RMK AO2
Loading
Personal Weather Stations






























Interactive Weather Map New forecast layout! Learn more

10-Day Weather Forecast

Advertisements
Track Severe Weather on mobile